createdAt,value
2018-07-02T00:00:26.234Z,5.43
2018-07-02T00:02:55.631Z,5.20
2018-07-02T00:05:29.722Z,5.00
2018-07-02T00:07:59.151Z,5.20
2018-07-02T00:10:27.967Z,5.57
2018-07-02T00:12:57.366Z,5.20
2018-07-02T00:15:26.715Z,6.40
2018-07-02T00:17:56.077Z,5.07
2018-07-02T00:20:25.498Z,5.63
2018-07-02T00:22:55.343Z,6.40
2018-07-02T00:25:24.710Z,5.23
2018-07-02T00:27:54.138Z,7.43
2018-07-02T00:30:23.498Z,6.70
2018-07-02T00:32:52.972Z,6.20
2018-07-02T00:35:21.855Z,7.23
2018-07-02T00:37:51.231Z,7.43
2018-07-02T00:40:20.646Z,8.73
2018-07-02T00:42:50.024Z,7.63
2018-07-02T00:45:19.541Z,8.60
2018-07-02T00:47:48.870Z,9.17
2018-07-02T00:50:18.343Z,9.80
2018-07-02T00:52:47.673Z,9.03
2018-07-02T00:55:16.988Z,8.60
2018-07-02T00:57:45.827Z,10.30
2018-07-02T01:00:17.383Z,8.63
2018-07-02T01:02:46.850Z,8.73
2018-07-02T01:05:16.269Z,8.23
2018-07-02T01:07:45.983Z,8.43
2018-07-02T01:10:15.377Z,7.90
2018-07-02T01:12:44.741Z,8.63
2018-07-02T01:15:13.636Z,6.63
2018-07-02T01:17:43.107Z,7.77
2018-07-02T01:20:12.673Z,8.23
2018-07-02T01:22:42.353Z,6.67
2018-07-02T01:25:11.807Z,7.00
2018-07-02T01:27:41.351Z,7.13
2018-07-02T01:30:10.815Z,5.77
2018-07-02T01:32:40.459Z,6.23
2018-07-02T01:35:10.129Z,5.73
2018-07-02T01:37:39.470Z,6.30
2018-07-02T01:40:08.946Z,6.03
2018-07-02T01:42:38.386Z,6.63
2018-07-02T01:45:07.942Z,6.00
2018-07-02T01:47:37.405Z,6.40
2018-07-02T01:50:06.890Z,7.23
2018-07-02T01:52:36.235Z,6.00
2018-07-02T01:55:05.686Z,6.37
2018-07-02T01:57:35.073Z,7.00
2018-07-02T02:00:04.574Z,6.53
2018-07-02T02:02:33.967Z,6.03
2018-07-02T02:05:03.410Z,5.17
2018-07-02T02:07:32.261Z,5.40
2018-07-02T02:10:01.674Z,6.13
2018-07-02T02:12:31.017Z,6.00
2018-07-02T02:15:00.402Z,6.73
2018-07-02T02:17:29.739Z,5.40
2018-07-02T02:19:59.162Z,5.53
2018-07-02T02:22:28.516Z,5.87
2018-07-02T02:24:57.883Z,6.00
2018-07-02T02:27:27.254Z,5.70
2018-07-02T02:29:56.631Z,6.40
2018-07-02T02:32:26.027Z,6.20
2018-07-02T02:34:55.468Z,5.43
2018-07-02T02:37:24.856Z,6.53
2018-07-02T02:39:53.717Z,5.50
2018-07-02T02:42:23.119Z,4.87
2018-07-02T02:44:52.469Z,5.50
2018-07-02T02:47:21.831Z,5.23
2018-07-02T02:49:51.203Z,5.63
2018-07-02T02:52:20.582Z,5.37
2018-07-02T02:54:49.929Z,5.37
2018-07-02T02:57:19.374Z,6.00
2018-07-02T02:59:48.733Z,6.10
2018-07-02T03:02:18.081Z,6.30
2018-07-02T03:04:47.559Z,5.00
2018-07-02T03:07:17.035Z,7.60
2018-07-02T03:09:46.532Z,5.65
2018-07-02T03:12:16.530Z,7.07
2018-07-02T03:14:45.931Z,7.00
2018-07-02T03:17:15.350Z,6.77
2018-07-02T03:19:44.892Z,6.77
2018-07-02T03:22:14.208Z,6.60
2018-07-02T03:24:43.599Z,5.60
2018-07-02T03:27:12.456Z,6.00
2018-07-02T03:29:41.798Z,5.83
2018-07-02T03:32:10.599Z,7.13
2018-07-02T03:34:40.037Z,5.50
2018-07-02T03:37:09.379Z,6.97
2018-07-02T03:39:38.741Z,6.47
2018-07-02T03:42:08.190Z,7.60
2018-07-02T03:44:37.536Z,6.90
2018-07-02T03:47:06.910Z,6.30
2018-07-02T03:49:36.235Z,5.10
2018-07-02T03:52:05.678Z,6.57
2018-07-02T03:54:35.010Z,5.80
2018-07-02T03:57:04.402Z,5.73
2018-07-02T03:59:33.750Z,6.90
2018-07-02T04:02:03.179Z,6.93
2018-07-02T04:04:32.554Z,6.17
2018-07-02T04:07:01.870Z,6.73
2018-07-02T04:09:31.223Z,6.07
2018-07-02T04:12:00.626Z,5.97
2018-07-02T04:14:29.992Z,5.90
2018-07-02T04:16:58.857Z,5.23
2018-07-02T04:19:28.287Z,6.20
2018-07-02T04:21:57.650Z,5.10
2018-07-02T04:24:27.050Z,6.17
2018-07-02T04:26:56.503Z,5.50
2018-07-02T04:29:25.878Z,6.70
2018-07-02T04:31:55.304Z,5.43
2018-07-02T04:34:24.659Z,6.37
2018-07-02T04:36:54.008Z,8.07
2018-07-02T04:39:23.541Z,6.40
2018-07-02T04:41:52.926Z,7.03
2018-07-02T04:44:22.255Z,7.10
2018-07-02T04:46:51.647Z,6.33
2018-07-02T04:49:21.029Z,6.20
2018-07-02T04:51:50.418Z,7.27
2018-07-02T04:54:19.273Z,6.50
2018-07-02T04:56:48.651Z,5.77
2018-07-02T04:59:18.000Z,7.13
2018-07-02T05:01:47.439Z,7.17
2018-07-02T05:04:16.215Z,7.10
2018-07-02T05:06:45.482Z,5.70
2018-07-02T05:09:14.978Z,6.37
2018-07-02T05:11:44.343Z,6.80
2018-07-02T05:14:13.340Z,6.27
2018-07-02T05:16:42.056Z,6.87
2018-07-02T05:19:11.389Z,6.50
2018-07-02T05:21:40.716Z,7.00
2018-07-02T05:24:09.458Z,7.90
2018-07-02T05:26:38.807Z,7.33
2018-07-02T05:29:08.132Z,7.27
2018-07-02T05:31:37.509Z,7.50
2018-07-02T05:34:06.283Z,7.57
2018-07-02T05:36:35.644Z,6.83
2018-07-02T05:39:07.051Z,8.20
2018-07-02T05:41:36.646Z,7.30
2018-07-02T05:44:05.514Z,6.57
2018-07-02T05:46:34.792Z,6.37
2018-07-02T05:49:04.162Z,5.70
2018-07-02T05:51:33.463Z,6.67
2018-07-02T05:54:02.768Z,6.60
2018-07-02T05:56:32.127Z,5.97
2018-07-02T05:59:01.430Z,6.07
2018-07-02T06:01:31.042Z,7.27
2018-07-02T06:04:00.594Z,8.57
2018-07-02T06:06:29.955Z,6.63
2018-07-02T06:08:58.847Z,7.13
2018-07-02T06:11:27.634Z,5.90
2018-07-02T06:13:56.483Z,7.73
2018-07-02T06:16:25.821Z,7.83
2018-07-02T06:18:55.209Z,7.60
2018-07-02T06:21:24.539Z,7.53
2018-07-02T06:23:53.862Z,7.53
2018-07-02T06:26:23.255Z,7.83
2018-07-02T06:28:52.567Z,7.33
2018-07-02T06:31:21.982Z,7.87
2018-07-02T06:33:51.571Z,8.30
2018-07-02T06:36:21.054Z,6.90
2018-07-02T06:38:50.183Z,8.27
2018-07-02T06:41:19.566Z,8.30
2018-07-02T06:43:48.906Z,6.60
2018-07-02T06:46:18.265Z,6.70
2018-07-02T06:48:47.615Z,6.60
2018-07-02T06:51:16.980Z,8.07
2018-07-02T06:53:46.322Z,6.80
2018-07-02T06:56:15.674Z,7.50
2018-07-02T06:58:45.282Z,7.50
2018-07-02T07:01:14.753Z,7.60
2018-07-02T07:03:44.147Z,7.17
2018-07-02T07:06:13.471Z,8.30
2018-07-02T07:08:42.900Z,8.67
2018-07-02T07:11:12.451Z,8.20
2018-07-02T07:13:41.892Z,8.53
2018-07-02T07:16:11.226Z,7.97
2018-07-02T07:18:40.558Z,8.17
2018-07-02T07:21:09.866Z,8.57
2018-07-02T07:23:39.244Z,8.03
2018-07-02T07:26:08.594Z,9.90
2018-07-02T07:28:37.350Z,9.30
2018-07-02T07:31:06.844Z,9.40
2018-07-02T07:33:36.167Z,8.40
2018-07-02T07:36:04.977Z,8.70
2018-07-02T07:38:33.806Z,8.27
2018-07-02T07:41:03.252Z,8.73
2018-07-02T07:43:32.027Z,8.93
2018-07-02T07:46:01.367Z,8.33
2018-07-02T07:48:30.694Z,8.63
2018-07-02T07:51:00.031Z,8.65
2018-07-02T07:53:32.387Z,8.00
2018-07-02T07:56:01.778Z,7.77
2018-07-02T07:58:31.224Z,7.57
2018-07-02T08:01:00.761Z,7.97
2018-07-02T08:03:30.214Z,7.00
2018-07-02T08:05:59.687Z,6.33
2018-07-02T08:08:29.050Z,8.83
2018-07-02T08:10:58.378Z,8.00
2018-07-02T08:13:27.929Z,7.30
2018-07-02T08:15:57.374Z,8.03
2018-07-02T08:18:26.822Z,8.37
2018-07-02T08:20:56.263Z,7.40
2018-07-02T08:23:25.087Z,8.57
2018-07-02T08:25:54.509Z,8.37
2018-07-02T08:28:23.834Z,8.60
2018-07-02T08:30:53.205Z,8.60
2018-07-02T08:33:22.658Z,6.70
2018-07-02T08:35:52.178Z,6.77
2018-07-02T08:38:21.578Z,7.20
2018-07-02T08:40:51.075Z,6.37
2018-07-02T08:43:19.902Z,5.80
2018-07-02T08:45:49.285Z,6.77
2018-07-02T08:48:18.664Z,6.30
2018-07-02T08:50:48.086Z,6.20
2018-07-02T08:53:17.434Z,7.03
2018-07-02T08:55:46.792Z,6.97
2018-07-02T08:58:17.539Z,7.70
2018-07-02T09:00:46.931Z,7.20
2018-07-02T09:03:16.377Z,8.13
2018-07-02T09:05:45.691Z,9.50
2018-07-02T09:08:15.079Z,7.70
2018-07-02T09:10:44.418Z,8.00
2018-07-02T09:13:13.782Z,9.33
2018-07-02T09:15:43.211Z,7.57
2018-07-02T09:18:12.512Z,7.30
2018-07-02T09:20:41.330Z,8.77
2018-07-02T09:23:10.693Z,7.80
2018-07-02T09:25:39.501Z,7.90
2018-07-02T09:28:08.888Z,7.80
2018-07-02T09:30:38.329Z,9.17
2018-07-02T09:33:07.662Z,8.03
2018-07-02T09:35:37.076Z,9.03
2018-07-02T09:38:06.680Z,8.60
2018-07-02T09:40:36.004Z,9.87
2018-07-02T09:43:05.013Z,8.37
2018-07-02T09:45:56.525Z,8.97
2018-07-02T09:48:26.126Z,8.47
2018-07-02T09:50:55.505Z,7.43
2018-07-02T09:53:24.834Z,7.93
2018-07-02T09:55:54.198Z,6.60
2018-07-02T09:58:23.511Z,7.80
2018-07-02T10:00:53.223Z,6.97
2018-07-02T10:03:22.663Z,8.13
2018-07-02T10:05:52.090Z,7.70
2018-07-02T10:08:20.922Z,7.10
2018-07-02T10:10:50.290Z,9.10
2018-07-02T10:13:19.735Z,9.00
2018-07-02T10:15:49.142Z,7.13
2018-07-02T10:18:17.957Z,8.50
2018-07-02T10:20:47.359Z,8.67
2018-07-02T10:23:16.762Z,8.90
2018-07-02T10:25:46.229Z,8.10
2018-07-02T10:28:15.571Z,8.17
2018-07-02T10:30:44.945Z,6.97
2018-07-02T10:33:14.286Z,6.70
2018-07-02T10:35:43.615Z,7.40
2018-07-02T10:38:13.011Z,6.80
2018-07-02T10:40:42.336Z,7.07
2018-07-02T10:43:11.711Z,7.17
2018-07-02T10:45:41.143Z,8.37
2018-07-02T10:48:10.590Z,7.43
2018-07-02T10:50:39.973Z,6.70
2018-07-02T10:53:09.366Z,6.70
2018-07-02T10:55:39.276Z,6.30
2018-07-02T10:58:08.785Z,6.53
2018-07-02T11:00:38.211Z,7.80
2018-07-02T11:03:07.553Z,6.50
2018-07-02T11:05:37.017Z,6.17
2018-07-02T11:08:06.437Z,7.10
2018-07-02T11:10:35.778Z,6.60
2018-07-02T11:13:52.790Z,7.60
2018-07-02T11:16:22.230Z,7.00
2018-07-02T11:18:51.881Z,5.83
2018-07-02T11:21:21.291Z,6.23
2018-07-02T11:23:50.690Z,7.40
2018-07-02T11:26:20.059Z,6.03
2018-07-02T11:28:49.387Z,5.90
2018-07-02T11:31:18.730Z,5.93
2018-07-02T11:33:48.137Z,6.17
2018-07-02T11:36:17.491Z,8.20
2018-07-02T11:38:46.838Z,6.93
2018-07-02T11:41:15.645Z,8.00
2018-07-02T11:43:45.034Z,7.73
2018-07-02T11:46:14.464Z,7.20
2018-07-02T11:48:43.934Z,8.03
2018-07-02T11:51:13.345Z,10.03
2018-07-02T11:53:42.774Z,8.73
2018-07-02T11:56:12.139Z,8.10
2018-07-02T11:58:41.603Z,8.60
2018-07-02T12:01:11.006Z,9.57
2018-07-02T12:03:40.374Z,9.47
2018-07-02T12:06:09.737Z,8.63
2018-07-02T12:08:39.184Z,9.33
2018-07-02T12:11:08.640Z,9.00
2018-07-02T12:13:38.048Z,9.43
2018-07-02T12:16:07.284Z,9.83
2018-07-02T12:18:36.703Z,8.50
2018-07-02T12:21:06.137Z,7.80
2018-07-02T12:23:35.594Z,7.90
2018-07-02T12:26:05.227Z,10.30
2018-07-02T12:28:34.599Z,10.60
2018-07-02T12:31:04.059Z,10.53
2018-07-02T12:33:33.569Z,11.37
2018-07-02T12:36:02.923Z,11.97
2018-07-02T12:38:32.338Z,11.23
2018-07-02T12:41:01.701Z,10.83
2018-07-02T12:43:31.019Z,11.77
2018-07-02T12:46:00.395Z,11.20
2018-07-02T12:48:29.170Z,9.80
2018-07-02T12:50:58.503Z,13.40
2018-07-02T12:53:28.042Z,10.63
2018-07-02T12:55:57.611Z,9.00
2018-07-02T12:58:27.102Z,10.27
2018-07-02T13:00:56.486Z,9.63
2018-07-02T13:03:25.259Z,9.30
2018-07-02T13:05:54.665Z,9.70
2018-07-02T13:08:24.004Z,9.47
2018-07-02T13:10:53.333Z,9.03
2018-07-02T13:13:22.722Z,10.90
2018-07-02T13:15:52.045Z,10.60
2018-07-02T13:18:21.369Z,10.53
2018-07-02T13:20:50.827Z,10.07
2018-07-02T13:23:20.209Z,9.33
2018-07-02T13:25:49.559Z,10.33
2018-07-02T13:28:19.283Z,10.60
2018-07-02T13:30:48.649Z,10.93
2018-07-02T13:33:17.959Z,9.47
2018-07-02T13:35:47.371Z,9.75
2018-07-02T13:38:16.781Z,10.67
2018-07-02T13:40:46.134Z,10.47
2018-07-02T13:43:15.554Z,10.30
2018-07-02T13:45:44.864Z,9.33
2018-07-02T13:48:14.281Z,10.03
2018-07-02T13:50:43.668Z,10.40
2018-07-02T13:53:13.008Z,10.80
2018-07-02T13:55:42.370Z,9.40
2018-07-02T13:58:11.757Z,9.70
2018-07-02T14:00:41.084Z,8.00
2018-07-02T14:03:10.423Z,8.70
2018-07-02T14:05:39.239Z,9.77
2018-07-02T14:08:08.547Z,10.00
2018-07-02T14:10:37.955Z,10.10
2018-07-02T14:13:07.391Z,9.43
2018-07-02T14:15:36.816Z,10.23
2018-07-02T14:18:06.187Z,8.13
2018-07-02T14:20:35.554Z,7.40
2018-07-02T14:23:05.082Z,6.83
2018-07-02T14:25:34.416Z,6.60
2018-07-02T14:28:03.799Z,7.67
2018-07-02T14:30:33.902Z,7.90
2018-07-02T14:33:03.292Z,7.80
2018-07-02T14:35:32.671Z,7.70
2018-07-02T14:38:02.002Z,7.10
2018-07-02T14:40:31.437Z,7.50
2018-07-02T14:43:00.771Z,8.40
2018-07-02T14:45:30.302Z,8.03
2018-07-02T14:47:59.586Z,7.17
2018-07-02T14:50:29.098Z,8.50
2018-07-02T14:52:58.622Z,6.40
2018-07-02T14:55:28.043Z,5.30
2018-07-02T14:57:57.427Z,5.80
2018-07-02T15:00:26.789Z,5.33
2018-07-02T15:02:55.629Z,4.90
2018-07-02T15:05:24.967Z,5.60
2018-07-02T15:07:54.374Z,6.20
2018-07-02T15:10:23.135Z,5.80
2018-07-02T15:12:52.490Z,5.27
2018-07-02T15:15:21.875Z,5.60
2018-07-02T15:17:51.794Z,6.33
2018-07-02T15:20:21.226Z,6.73
2018-07-02T15:22:50.574Z,6.60
2018-07-02T15:25:19.955Z,5.63
2018-07-02T15:27:49.283Z,5.40
2018-07-02T15:30:18.657Z,6.00
2018-07-02T15:32:48.041Z,6.83
2018-07-02T15:35:17.398Z,7.07
2018-07-02T15:37:46.219Z,5.97
2018-07-02T15:40:15.595Z,6.27
2018-07-02T15:42:44.929Z,7.43
2018-07-02T15:45:14.354Z,6.50
2018-07-02T15:47:43.754Z,6.03
2018-07-02T15:50:13.103Z,7.00
2018-07-02T15:52:42.439Z,6.20
2018-07-02T15:55:12.264Z,5.40
2018-07-02T15:57:41.711Z,7.10
2018-07-02T16:00:11.172Z,6.60
2018-07-02T16:02:40.508Z,5.83
2018-07-02T16:05:09.398Z,6.17
2018-07-02T16:07:38.782Z,7.30
2018-07-02T16:10:08.127Z,6.27
2018-07-02T16:12:37.581Z,5.53
2018-07-02T16:15:07.114Z,4.97
2018-07-02T16:17:35.911Z,6.80
2018-07-02T16:20:05.639Z,5.83
2018-07-02T16:22:34.991Z,5.87
2018-07-02T16:25:04.460Z,6.27
2018-07-02T16:27:33.834Z,7.57
2018-07-02T16:30:03.204Z,6.57
2018-07-02T16:32:32.567Z,5.70
2018-07-02T16:35:02.094Z,7.40
2018-07-02T16:37:31.453Z,8.47
2018-07-02T16:40:00.937Z,6.87
2018-07-02T16:42:29.766Z,6.30
2018-07-02T16:44:59.166Z,6.00
2018-07-02T16:47:28.857Z,5.93
2018-07-02T16:49:58.248Z,5.00
2018-07-02T16:52:27.776Z,6.17
2018-07-02T16:54:57.514Z,8.00
2018-07-02T16:57:26.900Z,5.90
2018-07-02T16:59:56.271Z,5.17
2018-07-02T17:02:25.930Z,5.03
2018-07-02T17:04:55.292Z,4.33
2018-07-02T17:07:24.751Z,7.23
2018-07-02T17:09:54.126Z,6.10
2018-07-02T17:12:23.602Z,5.80
2018-07-02T17:14:52.975Z,4.53
2018-07-02T17:17:21.763Z,5.43
2018-07-02T17:19:51.090Z,4.40
2018-07-02T17:22:20.497Z,4.90
2018-07-02T17:24:49.845Z,4.07
2018-07-02T17:27:19.428Z,4.97
2018-07-02T17:29:48.874Z,4.60
2018-07-02T17:32:18.194Z,4.70
2018-07-02T17:34:46.997Z,4.00
2018-07-02T17:37:16.328Z,5.00
2018-07-02T17:39:45.808Z,4.37
2018-07-02T17:42:15.232Z,5.57
2018-07-02T17:44:44.642Z,4.40
2018-07-02T17:47:13.965Z,4.67
2018-07-02T17:49:42.813Z,5.47
2018-07-02T17:52:12.115Z,4.53
2018-07-02T17:54:41.461Z,4.00
2018-07-02T17:57:10.802Z,4.70
2018-07-02T17:59:40.124Z,4.80
2018-07-02T18:02:09.520Z,5.40
2018-07-02T18:04:38.921Z,4.00
2018-07-02T18:07:08.267Z,4.10
2018-07-02T18:09:37.687Z,4.77
2018-07-02T18:12:07.108Z,3.87
2018-07-02T18:14:36.448Z,4.43
2018-07-02T18:17:06.009Z,5.07
2018-07-02T18:19:35.341Z,4.90
2018-07-02T18:22:05.058Z,4.67
2018-07-02T18:24:34.955Z,4.73
2018-07-02T18:27:05.347Z,4.20
2018-07-02T18:29:35.900Z,5.97
2018-07-02T18:32:06.235Z,5.00
2018-07-02T18:34:36.061Z,5.70
2018-07-02T18:37:06.604Z,6.07
2018-07-02T18:39:36.054Z,5.60
2018-07-02T18:42:07.236Z,7.00
2018-07-02T18:44:36.638Z,7.10
2018-07-02T18:47:06.230Z,7.80
2018-07-02T18:49:36.287Z,7.53
2018-07-02T18:52:06.362Z,8.07
2018-07-02T18:54:36.872Z,5.90
2018-07-02T18:57:05.969Z,5.23
2018-07-02T18:59:36.121Z,4.50
2018-07-02T19:02:05.818Z,5.33
2018-07-02T19:04:35.177Z,5.10
2018-07-02T19:07:04.678Z,4.40
2018-07-02T19:09:34.068Z,5.50
2018-07-02T19:12:03.423Z,9.60
2018-07-02T19:14:32.767Z,6.87
2018-07-02T19:17:02.178Z,6.47
2018-07-02T19:19:32.689Z,7.40
2018-07-02T19:22:02.147Z,6.67
2018-07-02T19:24:31.563Z,7.33
2018-07-02T19:27:01.324Z,8.63
2018-07-02T19:29:31.001Z,8.60
2018-07-02T19:32:00.519Z,10.03
2018-07-02T19:34:29.988Z,8.43
2018-07-02T19:36:59.500Z,8.03
2018-07-02T19:39:28.964Z,18.07
2018-07-02T19:41:57.884Z,26.73
2018-07-02T19:44:27.328Z,26.90
2018-07-02T19:46:56.876Z,19.87
2018-07-02T19:49:26.396Z,12.17
2018-07-02T19:51:55.985Z,12.30
2018-07-02T19:54:25.465Z,9.83
2018-07-02T19:56:54.984Z,10.03
2018-07-02T19:59:24.600Z,11.10
2018-07-02T20:01:54.142Z,9.73
2018-07-02T20:04:23.623Z,10.03
2018-07-02T20:06:53.465Z,9.77
2018-07-02T20:09:23.941Z,9.10
2018-07-02T20:11:53.371Z,9.30
2018-07-02T20:14:22.875Z,10.97
2018-07-02T20:16:52.505Z,11.50
2018-07-02T20:19:23.496Z,11.17
2018-07-02T20:21:52.299Z,8.50
2018-07-02T20:24:21.119Z,9.30
2018-07-02T20:26:50.507Z,9.93
2018-07-02T20:29:19.910Z,10.03
2018-07-02T20:31:49.332Z,9.40
2018-07-02T20:34:19.263Z,9.30
2018-07-02T20:36:48.575Z,10.10
2018-07-02T20:39:17.909Z,8.73
2018-07-02T20:41:47.284Z,8.90
2018-07-02T20:44:16.721Z,9.70
2018-07-02T20:46:46.122Z,9.73
2018-07-02T20:49:15.498Z,10.20
2018-07-02T20:51:44.879Z,10.43
2018-07-02T20:54:14.198Z,10.97
2018-07-02T20:56:43.636Z,11.27
2018-07-02T20:59:12.996Z,10.30
2018-07-02T21:01:42.924Z,12.17
2018-07-02T21:04:12.477Z,12.70
2018-07-02T21:06:46.295Z,10.75
2018-07-02T21:09:15.627Z,10.80
2018-07-02T21:11:44.962Z,11.07
2018-07-02T21:14:14.095Z,12.00
2018-07-02T21:16:44.583Z,11.18
2018-07-02T21:19:14.702Z,11.70
2018-07-02T21:21:43.607Z,11.45
2018-07-02T21:24:13.110Z,10.43
2018-07-02T21:26:43.235Z,11.13
2018-07-02T21:29:13.544Z,10.43
2018-07-02T21:31:43.840Z,11.73
2018-07-02T21:34:13.661Z,11.30
2018-07-02T21:36:43.514Z,12.40
2018-07-02T21:39:14.277Z,11.60
2018-07-02T21:41:44.206Z,10.27
2018-07-02T21:44:13.735Z,11.50
2018-07-02T21:46:44.038Z,11.53
2018-07-02T21:49:13.389Z,11.60
2018-07-02T21:51:42.792Z,12.93
2018-07-02T21:54:12.227Z,10.80
2018-07-02T21:56:41.605Z,12.07
2018-07-02T21:59:10.946Z,12.03
2018-07-02T22:01:40.332Z,11.47
2018-07-02T22:04:09.635Z,13.13
2018-07-02T22:06:38.953Z,12.07
2018-07-02T22:09:09.851Z,11.87
2018-07-02T22:11:39.234Z,12.80
2018-07-02T22:14:08.572Z,12.50
2018-07-02T22:16:37.970Z,12.17
2018-07-02T22:19:07.551Z,14.10
2018-07-02T22:21:36.858Z,12.20
2018-07-02T22:24:06.280Z,12.50
2018-07-02T22:26:36.968Z,12.57
2018-07-02T22:29:06.737Z,12.10
2018-07-02T22:31:36.045Z,12.00
2018-07-02T22:34:05.408Z,12.80
2018-07-02T22:36:34.734Z,11.80
2018-07-02T22:39:04.199Z,13.47
2018-07-02T22:41:33.508Z,12.37
2018-07-02T22:44:02.842Z,12.13
2018-07-02T22:46:32.163Z,11.83
2018-07-02T22:49:01.475Z,12.60
2018-07-02T22:51:30.311Z,12.90
2018-07-02T22:53:59.625Z,11.87
2018-07-02T22:56:28.932Z,11.60
2018-07-02T22:58:58.319Z,13.40
2018-07-02T23:01:27.632Z,11.47
2018-07-02T23:03:56.962Z,13.30
2018-07-02T23:06:25.786Z,12.47
2018-07-02T23:08:55.023Z,13.20
2018-07-02T23:11:24.763Z,12.93
2018-07-02T23:13:54.269Z,12.90
2018-07-02T23:16:23.051Z,12.57
2018-07-02T23:18:51.893Z,11.43
2018-07-02T23:21:21.209Z,14.00
2018-07-02T23:23:50.659Z,13.00
2018-07-02T23:26:20.011Z,12.97
2018-07-02T23:28:49.337Z,12.73
2018-07-02T23:31:18.663Z,13.10
2018-07-02T23:33:47.407Z,11.60
2018-07-02T23:36:16.735Z,13.60
2018-07-02T23:38:46.072Z,12.93
2018-07-02T23:41:15.481Z,14.27
2018-07-02T23:43:44.798Z,14.20
2018-07-02T23:46:14.209Z,15.40
2018-07-02T23:48:43.610Z,15.90
2018-07-02T23:51:13.019Z,16.83
2018-07-02T23:53:42.347Z,15.50
2018-07-02T23:56:11.239Z,15.70
2018-07-02T23:58:40.601Z,17.47
